createdAt,value
2019-02-20T00:01:56.143Z,12.60
2019-02-20T00:04:24.754Z,12.47
2019-02-20T00:06:53.395Z,14.90
2019-02-20T00:09:22.004Z,9.20
2019-02-20T00:11:51.188Z,16.80
2019-02-20T00:14:19.819Z,13.50
2019-02-20T00:16:48.503Z,13.93
2019-02-20T00:19:17.127Z,13.30
2019-02-20T00:21:45.767Z,16.20
2019-02-20T00:24:14.379Z,12.30
2019-02-20T00:26:43.320Z,15.68
2019-02-20T00:29:11.951Z,10.73
2019-02-20T00:31:41.356Z,10.40
2019-02-20T00:34:09.983Z,8.83
2019-02-20T00:36:38.726Z,12.13
2019-02-20T00:39:09.291Z,11.20
2019-02-20T00:41:37.996Z,12.93
2019-02-20T00:44:34.519Z,12.13
2019-02-20T00:47:15.183Z,12.90
2019-02-20T00:49:47.243Z,11.88
2019-02-20T00:52:25.183Z,12.95
2019-02-20T00:54:54.224Z,14.17
2019-02-20T00:57:23.050Z,12.60
2019-02-20T00:59:51.735Z,12.30
2019-02-20T01:02:20.460Z,13.60
2019-02-20T01:04:49.080Z,15.83
2019-02-20T01:07:17.706Z,10.27
2019-02-20T01:09:46.339Z,11.60
2019-02-20T01:12:14.960Z,11.30
2019-02-20T01:14:43.579Z,7.72
2019-02-20T01:17:12.393Z,7.92
2019-02-20T01:19:40.999Z,10.95
2019-02-20T01:22:10.599Z,11.03
2019-02-20T01:24:39.234Z,7.30
2019-02-20T01:27:07.855Z,7.03
2019-02-20T01:29:36.750Z,10.15
2019-02-20T01:32:05.482Z,10.80
2019-02-20T01:34:34.191Z,12.47
2019-02-20T01:37:03.891Z,11.68
2019-02-20T01:39:33.147Z,12.70
2019-02-20T01:42:01.751Z,9.77
2019-02-20T01:44:30.606Z,12.07
2019-02-20T01:46:59.240Z,12.78
2019-02-20T01:49:27.854Z,6.90
2019-02-20T01:51:56.499Z,8.40
2019-02-20T01:54:25.112Z,10.30
2019-02-20T01:56:53.739Z,11.22
2019-02-20T01:59:22.371Z,8.65
2019-02-20T02:01:51.006Z,8.47
2019-02-20T02:04:19.615Z,12.00
2019-02-20T02:06:48.300Z,6.87
2019-02-20T02:09:16.931Z,7.63
2019-02-20T02:11:45.547Z,9.70
2019-02-20T02:14:14.171Z,12.78
2019-02-20T02:16:42.827Z,12.93
2019-02-20T02:19:11.451Z,9.80
2019-02-20T02:21:40.069Z,8.70
2019-02-20T02:24:08.687Z,8.08
2019-02-20T02:26:37.291Z,10.08
2019-02-20T02:29:06.098Z,10.50
2019-02-20T02:31:34.710Z,9.17
2019-02-20T02:34:03.334Z,11.17
2019-02-20T02:36:32.175Z,8.00
2019-02-20T02:39:00.877Z,11.13
2019-02-20T02:41:31.131Z,18.32
2019-02-20T02:43:59.757Z,14.23
2019-02-20T02:46:28.379Z,13.00
2019-02-20T02:48:57.031Z,7.72
2019-02-20T02:51:25.736Z,12.53
2019-02-20T02:53:54.351Z,10.35
2019-02-20T02:56:23.003Z,14.43
2019-02-20T02:58:51.698Z,10.30
2019-02-20T03:01:20.312Z,10.40
2019-02-20T03:03:49.020Z,10.50
2019-02-20T03:06:17.641Z,11.17
2019-02-20T03:08:46.257Z,9.88
2019-02-20T03:11:14.911Z,10.88
2019-02-20T03:13:43.523Z,10.45
2019-02-20T03:16:12.139Z,15.23
2019-02-20T03:18:40.792Z,9.68
2019-02-20T03:21:09.474Z,10.03
2019-02-20T03:23:40.274Z,10.07
2019-02-20T03:26:08.346Z,11.07
2019-02-20T03:28:36.979Z,13.00
2019-02-20T03:31:05.632Z,18.25
2019-02-20T03:33:34.264Z,14.77
2019-02-20T03:36:03.525Z,10.80
2019-02-20T03:38:32.192Z,8.55
2019-02-20T03:41:01.059Z,10.50
2019-02-20T03:43:29.673Z,12.20
2019-02-20T03:45:59.019Z,13.95
2019-02-20T03:48:27.636Z,11.37
2019-02-20T03:50:56.961Z,12.90
2019-02-20T03:53:25.703Z,12.80
2019-02-20T03:55:54.319Z,11.97
2019-02-20T03:58:23.278Z,13.40
2019-02-20T04:00:51.915Z,13.38
2019-02-20T04:03:20.535Z,9.33
2019-02-20T04:05:49.155Z,13.35
2019-02-20T04:08:17.804Z,11.33
2019-02-20T04:10:46.500Z,10.13
2019-02-20T04:13:15.119Z,12.90
2019-02-20T04:15:43.751Z,11.17
2019-02-20T04:18:12.367Z,9.88
2019-02-20T04:20:41.299Z,7.75
2019-02-20T04:23:09.947Z,9.38
2019-02-20T04:25:38.583Z,12.95
2019-02-20T04:28:07.303Z,12.20
2019-02-20T04:30:36.895Z,11.47
2019-02-20T04:33:05.861Z,11.07
2019-02-20T04:35:34.491Z,12.43
2019-02-20T04:38:03.131Z,15.55
2019-02-20T04:40:31.759Z,11.80
2019-02-20T04:43:00.387Z,9.37
2019-02-20T04:45:29.108Z,13.40
2019-02-20T04:47:57.744Z,14.30
2019-02-20T04:50:26.360Z,9.95
2019-02-20T04:52:54.984Z,9.77
2019-02-20T04:55:23.607Z,12.10
2019-02-20T04:58:13.642Z,15.80
2019-02-20T05:00:42.696Z,11.17
2019-02-20T05:03:11.315Z,14.50
2019-02-20T05:05:39.953Z,14.03
2019-02-20T05:08:08.573Z,12.35
2019-02-20T05:10:37.273Z,13.72
2019-02-20T05:13:05.920Z,12.28
2019-02-20T05:15:34.548Z,14.97
2019-02-20T05:18:03.185Z,13.62
2019-02-20T05:20:32.176Z,7.45
2019-02-20T05:23:00.811Z,15.80
2019-02-20T05:25:29.463Z,16.23
2019-02-20T05:27:58.100Z,14.40
2019-02-20T05:30:26.720Z,16.82
2019-02-20T05:32:55.630Z,14.85
2019-02-20T05:35:24.264Z,15.13
2019-02-20T05:37:52.888Z,13.40
2019-02-20T05:40:21.532Z,16.50
2019-02-20T05:42:50.148Z,15.07
2019-02-20T05:45:18.772Z,18.47
2019-02-20T05:47:48.391Z,14.23
2019-02-20T05:50:17.009Z,15.32
2019-02-20T05:52:45.637Z,17.05
2019-02-20T05:55:14.289Z,18.40
2019-02-20T05:57:42.904Z,17.15
2019-02-20T06:00:11.791Z,14.50
2019-02-20T06:02:40.423Z,16.15
2019-02-20T06:05:09.043Z,13.98
2019-02-20T06:07:37.651Z,15.55
2019-02-20T06:10:06.696Z,15.10
2019-02-20T06:12:35.819Z,16.97
2019-02-20T06:15:04.594Z,13.75
2019-02-20T06:17:33.331Z,15.23
2019-02-20T06:20:01.957Z,13.55
2019-02-20T06:22:30.650Z,18.73
2019-02-20T06:24:59.279Z,17.40
2019-02-20T06:27:27.911Z,27.13
2019-02-20T06:29:56.567Z,15.43
2019-02-20T06:32:25.155Z,16.37
2019-02-20T06:34:53.778Z,14.63
2019-02-20T06:37:22.391Z,11.65
2019-02-20T06:39:51.034Z,15.28
2019-02-20T06:42:19.712Z,18.15
2019-02-20T06:44:48.357Z,16.93
2019-02-20T06:47:16.997Z,18.67
2019-02-20T06:49:45.613Z,22.10
2019-02-20T06:52:15.202Z,15.23
2019-02-20T06:54:53.318Z,16.97
2019-02-20T06:57:15.152Z,16.00
2019-02-20T06:59:43.799Z,17.70
2019-02-20T07:02:12.508Z,18.87
2019-02-20T07:05:00.332Z,21.02
2019-02-20T07:07:34.410Z,13.35
2019-02-20T07:10:25.095Z,15.03
2019-02-20T07:12:56.627Z,13.48
2019-02-20T07:15:53.315Z,18.75
2019-02-20T07:18:36.126Z,15.63
2019-02-20T07:21:12.852Z,15.15
2019-02-20T07:23:51.187Z,16.20
2019-02-20T07:26:28.569Z,20.23
2019-02-20T07:29:02.097Z,18.82
2019-02-20T07:31:30.731Z,16.20
2019-02-20T07:33:59.347Z,19.93
2019-02-20T07:36:27.983Z,17.07
2019-02-20T07:38:57.567Z,23.38
2019-02-20T07:41:26.183Z,17.62
2019-02-20T07:43:55.664Z,15.53
2019-02-20T07:46:24.355Z,19.45
2019-02-20T07:48:52.989Z,18.52
2019-02-20T07:51:21.642Z,17.97
2019-02-20T07:53:50.276Z,16.15
2019-02-20T07:56:19.469Z,15.58
2019-02-20T07:58:48.132Z,16.65
2019-02-20T08:01:16.743Z,18.90
2019-02-20T08:03:45.424Z,16.40
2019-02-20T08:06:14.071Z,15.95
2019-02-20T08:08:42.683Z,12.78
2019-02-20T08:11:12.571Z,14.25
2019-02-20T08:13:41.191Z,15.88
2019-02-20T08:16:09.809Z,12.93
2019-02-20T08:18:39.406Z,14.17
2019-02-20T08:21:08.583Z,16.37
2019-02-20T08:23:37.196Z,11.73
2019-02-20T08:26:05.817Z,15.88
2019-02-20T08:28:34.479Z,15.13
2019-02-20T08:31:03.171Z,14.95
2019-02-20T08:33:31.791Z,11.38
2019-02-20T08:36:00.435Z,13.22
2019-02-20T08:38:29.067Z,13.72
2019-02-20T08:40:57.692Z,11.13
2019-02-20T08:43:26.319Z,16.53
2019-02-20T08:45:55.435Z,15.23
2019-02-20T08:48:24.132Z,12.37
2019-02-20T08:50:52.753Z,13.63
2019-02-20T08:53:21.411Z,16.95
2019-02-20T08:55:50.015Z,10.87
2019-02-20T08:58:18.812Z,11.90
2019-02-20T09:00:47.460Z,14.47
2019-02-20T09:03:16.295Z,13.40
2019-02-20T09:05:45.123Z,7.80
2019-02-20T09:08:13.771Z,8.55
2019-02-20T09:10:42.380Z,9.63
2019-02-20T09:13:11.017Z,12.03
2019-02-20T09:15:39.648Z,2.13
2019-02-20T09:18:08.285Z,19.10
2019-02-20T09:20:36.884Z,17.93
2019-02-20T09:23:05.523Z,9.63
2019-02-20T09:25:41.316Z,11.00
2019-02-20T09:28:04.445Z,4.70
2019-02-20T09:30:34.444Z,17.15
2019-02-20T09:33:03.122Z,5.17
2019-02-20T09:35:32.389Z,10.50
2019-02-20T09:38:00.995Z,9.00
2019-02-20T09:40:29.616Z,16.32
2019-02-20T09:42:58.262Z,2.08
2019-02-20T09:45:26.959Z,3.73
2019-02-20T09:47:55.578Z,17.90
2019-02-20T09:50:24.230Z,12.85
2019-02-20T09:52:53.041Z,16.50
2019-02-20T09:55:21.671Z,8.88
2019-02-20T09:57:50.451Z,17.10
2019-02-20T10:00:19.276Z,5.23
2019-02-20T10:02:47.896Z,7.90
2019-02-20T10:05:16.515Z,8.77
2019-02-20T10:07:45.339Z,5.46
2019-02-20T10:10:13.956Z,4.47
2019-02-20T10:12:42.577Z,5.43
2019-02-20T10:15:11.484Z,2.85
2019-02-20T10:17:40.265Z,4.70
2019-02-20T10:20:09.151Z,13.15
2019-02-20T10:22:37.914Z,3.70
2019-02-20T10:25:06.663Z,1.60
2019-02-20T10:27:35.319Z,4.00
2019-02-20T10:30:04.217Z,9.25
2019-02-20T10:32:33.187Z,4.60
2019-02-20T10:35:01.804Z,7.37
2019-02-20T10:37:31.800Z,3.40
2019-02-20T10:40:00.429Z,8.08
2019-02-20T10:42:29.059Z,3.03
2019-02-20T10:44:57.683Z,2.00
2019-02-20T10:47:26.315Z,7.97
2019-02-20T10:49:54.983Z,11.07
2019-02-20T10:52:23.610Z,7.13
2019-02-20T10:54:57.819Z,5.45
2019-02-20T10:57:23.625Z,4.17
2019-02-20T10:59:52.235Z,9.40
2019-02-20T11:02:20.882Z,5.25
2019-02-20T11:04:50.159Z,4.30
2019-02-20T11:07:18.831Z,4.17
2019-02-20T11:09:47.807Z,8.73
2019-02-20T11:12:16.427Z,9.95
2019-02-20T11:14:45.223Z,10.90
2019-02-20T11:17:13.831Z,1.80
2019-02-20T11:19:42.440Z,4.87
2019-02-20T11:22:11.364Z,3.23
2019-02-20T11:24:40.011Z,9.90
2019-02-20T11:27:08.620Z,5.40
2019-02-20T11:29:37.235Z,4.05
2019-02-20T11:32:05.887Z,12.07
2019-02-20T11:34:34.807Z,2.50
2019-02-20T11:37:03.421Z,4.57
2019-02-20T11:39:37.717Z,9.55
2019-02-20T11:42:02.315Z,12.33
2019-02-20T11:44:30.951Z,1.77
2019-02-20T11:46:59.581Z,5.97
2019-02-20T11:49:28.183Z,2.93
2019-02-20T11:51:56.799Z,3.83
2019-02-20T11:54:26.077Z,7.30
2019-02-20T11:56:54.691Z,4.03
2019-02-20T11:59:23.326Z,12.30
2019-02-20T12:01:52.443Z,4.87
2019-02-20T12:04:21.063Z,8.03
2019-02-20T12:06:49.671Z,2.40
2019-02-20T12:09:18.614Z,5.07
2019-02-20T12:11:47.243Z,1.52
2019-02-20T12:14:16.951Z,11.95
2019-02-20T12:16:45.575Z,16.83
2019-02-20T12:19:14.666Z,3.67
2019-02-20T12:21:43.395Z,7.78
2019-02-20T12:24:12.005Z,6.28
2019-02-20T12:26:40.632Z,14.50
2019-02-20T12:29:11.287Z,6.28
2019-02-20T12:31:40.179Z,14.33
2019-02-20T12:34:08.802Z,15.65
2019-02-20T12:36:37.473Z,2.53
2019-02-20T12:39:06.291Z,4.40
2019-02-20T12:41:36.599Z,4.27
2019-02-20T12:44:05.359Z,13.53
2019-02-20T12:46:33.991Z,3.98
2019-02-20T12:49:02.699Z,4.47
2019-02-20T12:51:31.339Z,17.50
2019-02-20T12:53:59.957Z,3.57
2019-02-20T12:56:28.570Z,11.70
2019-02-20T12:58:57.271Z,4.50
2019-02-20T13:01:25.874Z,1.83
2019-02-20T13:03:54.587Z,5.40
2019-02-20T13:06:23.212Z,4.27
2019-02-20T13:08:51.832Z,2.27
2019-02-20T13:11:20.480Z,8.00
2019-02-20T13:13:49.173Z,6.92
2019-02-20T13:16:17.807Z,7.07
2019-02-20T13:18:46.598Z,1.47
2019-02-20T13:21:15.292Z,10.58
2019-02-20T13:23:45.404Z,5.37
2019-02-20T13:26:14.212Z,10.75
2019-02-20T13:28:43.885Z,5.25
2019-02-20T13:31:12.488Z,5.85
2019-02-20T13:33:41.140Z,10.45
2019-02-20T13:36:09.751Z,2.62
2019-02-20T13:38:38.654Z,7.58
2019-02-20T13:41:07.788Z,8.83
2019-02-20T13:43:36.395Z,2.17
2019-02-20T13:46:05.007Z,2.08
2019-02-20T13:48:34.948Z,6.67
2019-02-20T13:51:04.164Z,7.05
2019-02-20T13:53:33.911Z,9.30
2019-02-20T13:56:02.532Z,11.85
2019-02-20T13:58:31.152Z,5.20
2019-02-20T14:00:59.784Z,4.08
2019-02-20T14:03:29.475Z,9.43
2019-02-20T14:05:58.136Z,5.37
2019-02-20T14:08:26.837Z,9.30
2019-02-20T14:10:55.876Z,4.47
2019-02-20T14:13:25.771Z,4.95
2019-02-20T14:15:54.399Z,1.77
2019-02-20T14:18:23.019Z,2.77
2019-02-20T14:20:51.665Z,9.13
2019-02-20T14:23:20.282Z,2.35
2019-02-20T14:25:48.891Z,2.15
2019-02-20T14:28:17.514Z,1.53
2019-02-20T14:30:47.411Z,6.37
2019-02-20T14:33:16.043Z,2.30
2019-02-20T14:35:44.668Z,2.12
2019-02-20T14:38:13.316Z,9.00
2019-02-20T14:40:41.931Z,3.50
2019-02-20T14:43:10.624Z,3.90
2019-02-20T14:45:39.357Z,7.73
2019-02-20T14:48:07.967Z,9.03
2019-02-20T14:50:36.588Z,5.80
2019-02-20T14:53:05.216Z,10.08
2019-02-20T14:55:33.822Z,7.50
2019-02-20T14:58:02.563Z,3.13
2019-02-20T15:00:31.255Z,3.70
2019-02-20T15:03:00.139Z,5.50
2019-02-20T15:05:30.471Z,3.67
2019-02-20T15:07:59.192Z,2.27
2019-02-20T15:10:27.811Z,2.17
2019-02-20T15:12:56.438Z,3.92
2019-02-20T15:15:25.103Z,6.03
2019-02-20T15:17:53.724Z,1.90
2019-02-20T15:20:22.334Z,2.47
2019-02-20T15:22:51.073Z,1.70
2019-02-20T15:25:19.687Z,7.47
2019-02-20T15:27:48.317Z,4.73
2019-02-20T15:30:16.963Z,13.07
2019-02-20T15:32:45.583Z,6.17
2019-02-20T15:35:14.608Z,3.92
2019-02-20T15:37:43.259Z,8.53
2019-02-20T15:40:11.884Z,1.13
2019-02-20T15:42:40.582Z,5.83
2019-02-20T15:45:09.224Z,4.20
2019-02-20T15:47:37.874Z,6.25
2019-02-20T15:50:07.108Z,4.47
2019-02-20T15:52:36.023Z,7.97
2019-02-20T15:55:04.982Z,4.55
2019-02-20T15:57:38.121Z,3.15
2019-02-20T16:00:04.575Z,3.45
2019-02-20T16:02:33.479Z,2.30
2019-02-20T16:05:02.207Z,4.92
2019-02-20T16:07:32.291Z,2.60
2019-02-20T16:10:01.614Z,5.00
2019-02-20T16:12:32.447Z,2.95
2019-02-20T16:15:01.155Z,2.80
2019-02-20T16:17:31.399Z,0.87
2019-02-20T16:20:00.024Z,4.45
2019-02-20T16:22:28.958Z,5.08
2019-02-20T16:24:57.649Z,1.20
2019-02-20T16:27:26.267Z,2.80
2019-02-20T16:29:54.911Z,4.25
2019-02-20T16:32:23.527Z,5.93
2019-02-20T16:34:52.235Z,8.05
2019-02-20T16:37:21.767Z,4.35
2019-02-20T16:39:50.800Z,1.50
2019-02-20T16:42:19.411Z,3.05
2019-02-20T16:44:48.055Z,8.20
2019-02-20T16:47:16.755Z,3.33
2019-02-20T16:49:45.639Z,5.22
2019-02-20T16:52:14.272Z,6.50
2019-02-20T16:54:42.911Z,4.47
2019-02-20T16:57:12.142Z,5.92
2019-02-20T16:59:40.855Z,4.55
2019-02-20T17:02:09.679Z,6.58
2019-02-20T17:04:39.557Z,8.90
2019-02-20T17:07:08.347Z,5.67
2019-02-20T17:09:36.951Z,4.33
2019-02-20T17:12:05.855Z,5.03
2019-02-20T17:14:35.273Z,5.90
2019-02-20T17:17:04.742Z,6.37
2019-02-20T17:19:33.496Z,6.90
2019-02-20T17:22:02.108Z,5.58
2019-02-20T17:24:30.887Z,7.70
2019-02-20T17:27:00.622Z,7.33
2019-02-20T17:29:29.915Z,6.83
2019-02-20T17:31:58.543Z,9.47
2019-02-20T17:34:27.185Z,6.83
2019-02-20T17:36:56.000Z,5.72
2019-02-20T17:39:24.631Z,9.60
2019-02-20T17:41:53.260Z,9.73
2019-02-20T17:44:22.820Z,10.23
2019-02-20T17:46:51.438Z,5.10
2019-02-20T17:49:20.080Z,8.05
2019-02-20T17:51:48.710Z,11.20
2019-02-20T17:54:18.408Z,10.63
2019-02-20T17:56:47.060Z,10.30
2019-02-20T17:59:17.521Z,15.20
2019-02-20T18:01:46.223Z,17.27
2019-02-20T18:04:15.867Z,18.07
2019-02-20T18:06:44.539Z,17.77
2019-02-20T18:09:13.440Z,12.35
2019-02-20T18:11:42.090Z,14.05
2019-02-20T18:14:10.716Z,11.40
2019-02-20T18:16:39.365Z,10.38
2019-02-20T18:19:08.011Z,10.30
2019-02-20T18:21:36.661Z,11.37
2019-02-20T18:24:05.275Z,11.15
2019-02-20T18:26:33.949Z,12.03
2019-02-20T18:29:02.644Z,9.23
2019-02-20T18:31:31.251Z,9.10
2019-02-20T18:34:00.135Z,13.37
2019-02-20T18:36:28.792Z,8.85
2019-02-20T18:38:57.421Z,9.68
2019-02-20T18:41:26.070Z,7.50
2019-02-20T18:43:54.748Z,10.43
2019-02-20T18:46:23.406Z,8.27
2019-02-20T18:48:52.037Z,8.97
2019-02-20T18:51:20.725Z,10.40
2019-02-20T18:53:49.329Z,11.15
2019-02-20T18:56:17.985Z,16.45
2019-02-20T18:58:46.985Z,7.58
2019-02-20T19:01:15.617Z,9.60
2019-02-20T19:03:44.231Z,7.50
2019-02-20T19:06:13.315Z,11.43
2019-02-20T19:08:46.063Z,10.63
2019-02-20T19:11:20.468Z,13.28
2019-02-20T19:13:58.197Z,9.00
2019-02-20T19:16:58.144Z,16.23
2019-02-20T19:19:45.908Z,14.03
2019-02-20T19:22:46.259Z,10.25
2019-02-20T19:25:21.948Z,9.88
2019-02-20T19:27:54.560Z,12.40
2019-02-20T19:30:36.777Z,11.28
2019-02-20T19:33:12.105Z,8.48
2019-02-20T19:35:59.911Z,10.25
2019-02-20T19:38:50.196Z,10.83
2019-02-20T19:41:28.815Z,10.67
2019-02-20T19:44:21.640Z,9.10
2019-02-20T19:46:57.642Z,10.80
2019-02-20T19:49:43.806Z,13.07
2019-02-20T19:52:22.606Z,11.43
2019-02-20T19:55:13.207Z,10.80
2019-02-20T19:58:03.783Z,8.13
2019-02-20T20:00:39.070Z,12.17
2019-02-20T20:03:18.079Z,8.78
2019-02-20T20:05:51.172Z,10.58
2019-02-20T20:08:38.136Z,10.00
2019-02-20T20:11:18.212Z,10.97
2019-02-20T20:14:08.789Z,10.37
2019-02-20T20:17:14.178Z,11.15
2019-02-20T20:19:57.679Z,11.08
2019-02-20T20:22:47.772Z,12.85
2019-02-20T20:25:29.097Z,14.03
2019-02-20T20:28:12.719Z,12.27
2019-02-20T20:31:09.439Z,19.45
2019-02-20T20:33:55.930Z,11.08
2019-02-20T20:36:29.415Z,11.55
2019-02-20T20:39:06.997Z,12.53
2019-02-20T20:42:01.990Z,12.60
2019-02-20T20:44:36.357Z,12.23
2019-02-20T20:47:09.051Z,14.10
2019-02-20T20:49:53.383Z,14.55
2019-02-20T20:52:41.187Z,17.07
2019-02-20T20:55:16.219Z,14.10
2019-02-20T20:57:56.334Z,14.97
2019-02-20T21:00:45.687Z,14.07
2019-02-20T21:03:15.398Z,15.70
2019-02-20T21:06:01.495Z,17.82
2019-02-20T21:08:35.292Z,16.67
2019-02-20T21:11:17.289Z,17.03
2019-02-20T21:14:10.812Z,15.08
2019-02-20T21:17:15.902Z,18.80
2019-02-20T21:20:03.510Z,15.05
2019-02-20T21:22:40.444Z,14.23
2019-02-20T21:25:34.276Z,16.50
2019-02-20T21:28:34.459Z,17.95
2019-02-20T21:31:20.725Z,14.55
2019-02-20T21:33:59.039Z,16.10
2019-02-20T21:36:38.975Z,14.73
2019-02-20T21:39:36.131Z,15.72
2019-02-20T21:42:23.655Z,16.93
2019-02-20T21:45:07.912Z,18.77
2019-02-20T21:47:43.569Z,18.02
2019-02-20T21:50:16.464Z,16.67
2019-02-20T21:53:04.210Z,18.80
2019-02-20T21:56:10.571Z,18.93
2019-02-20T21:58:47.703Z,16.57
2019-02-20T22:01:31.695Z,20.88
2019-02-20T22:04:13.111Z,26.10
2019-02-20T22:06:53.274Z,29.42
2019-02-20T22:09:34.731Z,22.98
2019-02-20T22:12:15.777Z,27.38
2019-02-20T22:14:53.555Z,25.25
2019-02-20T22:17:34.559Z,20.50
2019-02-20T22:20:15.727Z,17.60
2019-02-20T22:22:56.782Z,19.13
2019-02-20T22:25:31.604Z,20.40
2019-02-20T22:28:06.155Z,17.73
2019-02-20T22:30:52.492Z,17.17
2019-02-20T22:33:32.419Z,17.53
2019-02-20T22:36:14.919Z,16.17
2019-02-20T22:39:08.923Z,17.07
2019-02-20T22:41:44.512Z,12.93
2019-02-20T22:44:30.983Z,15.97
2019-02-20T22:47:21.407Z,16.42
2019-02-20T22:49:58.727Z,13.60
2019-02-20T22:52:39.191Z,14.47
2019-02-20T22:55:17.198Z,12.53
2019-02-20T22:57:51.783Z,12.50
2019-02-20T23:00:52.239Z,17.52
2019-02-20T23:03:48.183Z,13.10
2019-02-20T23:06:39.126Z,11.95
2019-02-20T23:09:16.546Z,15.78
2019-02-20T23:12:06.955Z,11.65
2019-02-20T23:14:39.181Z,12.18
2019-02-20T23:17:07.887Z,12.65
2019-02-20T23:19:36.511Z,13.53
2019-02-20T23:22:05.154Z,13.90
2019-02-20T23:24:33.771Z,16.50
2019-02-20T23:27:02.405Z,13.83
2019-02-20T23:29:31.035Z,15.83
2019-02-20T23:31:59.987Z,14.10
2019-02-20T23:34:31.099Z,13.15
2019-02-20T23:36:58.871Z,13.32
2019-02-20T23:39:27.515Z,17.57
2019-02-20T23:41:56.140Z,14.73
2019-02-20T23:44:24.763Z,16.93
2019-02-20T23:46:53.482Z,13.88
2019-02-20T23:49:22.123Z,13.58
2019-02-20T23:51:51.728Z,18.65
2019-02-20T23:54:20.387Z,12.03
2019-02-20T23:56:49.005Z,15.72
2019-02-20T23:59:17.646Z,15.38
